Terminal Aerodrome Forecast
Issued by NWS Cleveland, OH

Home | Current Version | Previous Version | Text Only | Print | Product List | Glossary Off
Versions: 1 2 3 4 5 6 7 8 9 10 11 12 13 14 15 16 17 18 19 20 21

000
FTUS41 KCLE 111133
TAFMFD
TAF
KMFD 111133Z 1112/1212 14008KT 4SM -SN OVC035
      TEMPO 1114/1118 2SM -SN OVC025
     FM111800 15010KT 2SM -SN OVC025
     FM112200 15010G20KT 3SM -SN OVC015
     FM120200 18010G20KT 3SM -RASN OVC008
     FM120900 23010KT 6SM -RA OVC008=

USA.gov is the U.S. government's official web portal to all federal, state and local government web resources and services.